Time;durP1;ratioP1;P1;durP2;ratioP2;P2;SDS_P1;SDS_P2;PMS_P1;PMS_P2;Temp;Humidity;BMP_temperature;BMP_pressure;BME280_temperature;BME280_humidity;BME280_pressure;Samples;Min_cycle;Max_cycle;Signal;HPM_P1;HPM_P2
2024/01/13 00:01:38;;;;;;;0.60;0.60;;;;;;;5.18;100.00;101582.47;5008729;28;20406;-76
2024/01/13 00:04:04;;;;;;;0.30;0.30;;;;;;;5.14;100.00;101582.28;4996247;28;20041;-76
2024/01/13 00:06:29;;;;;;;0.85;0.85;;;;;;;5.21;100.00;101576.53;4993986;28;20684;-76
2024/01/13 00:08:55;;;;;;;0.40;0.40;;;;;;;5.17;100.00;101581.66;4993342;28;20038;-76
2024/01/13 00:11:20;;;;;;;0.32;0.22;;;;;;;5.21;100.00;101576.53;5009013;28;20078;-76
2024/01/13 00:13:46;;;;;;;0.55;0.55;;;;;;;5.16;100.00;101577.44;4992322;28;20200;-78
2024/01/13 00:16:11;;;;;;;0.45;0.40;;;;;;;5.26;100.00;101573.78;4992951;28;20125;-76
2024/01/13 00:18:36;;;;;;;0.30;0.30;;;;;;;5.08;100.00;101572.75;4993696;28;20704;-76
2024/01/13 00:21:02;;;;;;;0.20;0.20;;;;;;;5.15;100.00;101569.72;4991898;28;20116;-78
2024/01/13 00:23:27;;;;;;;0.30;0.30;;;;;;;5.05;100.00;101570.66;4976039;28;20026;-78
2024/01/13 00:25:53;;;;;;;0.52;0.30;;;;;;;5.06;100.00;101558.13;4993569;28;20033;-76
2024/01/13 00:28:18;;;;;;;0.50;0.50;;;;;;;5.06;100.00;101553.59;4992539;28;20600;-78
2024/01/13 00:30:44;;;;;;;0.32;0.32;;;;;;;4.98;100.00;101551.59;5002256;28;20036;-76
2024/01/13 00:33:09;;;;;;;0.35;0.35;;;;;;;4.93;100.00;101559.72;4998765;28;21230;-77
2024/01/13 00:35:36;;;;;;;0.35;0.30;;;;;;;4.96;100.00;101553.75;4992401;28;20171;-76
2024/01/13 00:38:01;;;;;;;0.40;0.40;;;;;;;4.93;100.00;101548.22;4975507;28;20087;-76
2024/01/13 00:40:27;;;;;;;0.40;0.40;;;;;;;5.06;100.00;101542.91;4992184;28;20873;-75
2024/01/13 00:42:52;;;;;;;0.35;0.35;;;;;;;4.80;100.00;101541.00;4975547;28;20044;-77
2024/01/13 00:45:18;;;;;;;0.30;0.30;;;;;;;5.05;100.00;101535.97;4991921;28;20033;-76
2024/01/13 00:47:43;;;;;;;0.35;0.35;;;;;;;4.99;100.00;101529.19;4990957;28;20144;-76
2024/01/13 00:50:09;;;;;;;0.28;0.28;;;;;;;4.91;100.00;101529.06;4991229;28;20071;-76
2024/01/13 00:52:34;;;;;;;0.52;0.52;;;;;;;5.11;100.00;101528.69;4991049;28;20049;-75
2024/01/13 00:55:00;;;;;;;0.47;0.47;;;;;;;4.97;100.00;101522.53;4990636;28;20395;-78
2024/01/13 00:57:25;;;;;;;1.65;0.43;;;;;;;4.71;100.00;101508.06;4990163;28;20041;-75
2024/01/13 00:59:51;;;;;;;0.63;0.30;;;;;;;4.97;100.00;101512.66;4992767;28;20029;-76
2024/01/13 01:02:16;;;;;;;1.35;0.85;;;;;;;4.93;100.00;101503.66;4990875;28;20091;-78
2024/01/13 01:04:42;;;;;;;0.20;0.20;;;;;;;5.08;100.00;101507.91;4992219;28;20154;-76
2024/01/13 01:07:08;;;;;;;1.08;0.75;;;;;;;5.17;100.00;101503.44;5008359;28;20120;-76
2024/01/13 01:09:33;;;;;;;0.45;0.45;;;;;;;5.08;100.00;101503.38;4991081;28;20499;-78
2024/01/13 01:11:59;;;;;;;0.22;0.22;;;;;;;5.16;100.00;101496.53;4991138;28;20041;-78
2024/01/13 01:14:24;;;;;;;0.30;0.30;;;;;;;4.96;100.00;101495.06;4990870;28;20029;-75
2024/01/13 01:16:53;;;;;;;0.60;0.60;;;;;;;5.19;100.00;101486.06;4991764;28;21353;-77
2024/01/13 01:19:18;;;;;;;0.47;0.47;;;;;;;5.03;100.00;101484.78;4989074;28;20141;-78
2024/01/13 01:21:44;;;;;;;0.30;0.30;;;;;;;4.95;100.00;101493.50;4991684;28;20044;-75
2024/01/13 01:24:09;;;;;;;0.28;0.28;;;;;;;5.08;100.00;101490.03;4997896;28;22209;-75
2024/01/13 01:26:35;;;;;;;0.40;0.40;;;;;;;5.07;100.00;101483.09;4998799;28;20045;-76
2024/01/13 01:29:00;;;;;;;0.38;0.38;;;;;;;5.15;100.00;101469.06;4999019;28;20060;-76
2024/01/13 01:31:26;;;;;;;2.10;0.63;;;;;;;4.91;100.00;101467.69;4994941;28;20037;-76
2024/01/13 01:33:51;;;;;;;0.25;0.25;;;;;;;5.16;100.00;101462.66;4996615;28;20029;-76
2024/01/13 01:36:16;;;;;;;0.98;0.40;;;;;;;5.16;100.00;101467.97;5001873;28;20033;-76
2024/01/13 01:38:42;;;;;;;0.85;0.60;;;;;;;5.22;100.00;101450.78;5000920;28;21094;-80
2024/01/13 01:41:09;;;;;;;0.82;0.77;;;;;;;4.97;100.00;101453.97;4997103;28;20064;-76
2024/01/13 01:43:34;;;;;;;0.50;0.50;;;;;;;4.99;100.00;101462.47;5001306;28;20691;-75
2024/01/13 01:46:03;;;;;;;0.30;0.30;;;;;;;5.07;100.00;101458.31;4999572;28;20044;-76
2024/01/13 01:48:42;;;;;;;0.93;0.70;;;;;;;4.97;100.00;101453.16;5003269;28;20566;-76
2024/01/13 01:51:09;;;;;;;0.20;0.20;;;;;;;5.06;100.00;101451.38;4985789;28;20168;-78
2024/01/13 01:53:35;;;;;;;1.92;0.88;;;;;;;5.17;100.00;101450.06;5002145;28;20684;-78
2024/01/13 01:56:05;;;;;;;0.80;0.80;;;;;;;5.20;100.00;101444.16;5003853;28;20457;-76
2024/01/13 01:58:31;;;;;;;2.40;1.20;;;;;;;5.18;100.00;101452.47;4984146;28;20029;-78
2024/01/13 02:00:57;;;;;;;0.88;0.88;;;;;;;5.08;100.00;101443.84;4989916;28;20037;-76
2024/01/13 02:03:23;;;;;;;0.68;0.68;;;;;;;5.16;100.00;101438.63;4991034;28;20041;-78
2024/01/13 02:05:48;;;;;;;0.75;0.73;;;;;;;5.10;100.00;101436.34;4990513;28;20037;-76
2024/01/13 02:08:15;;;;;;;0.82;0.80;;;;;;;5.28;100.00;101448.78;4991842;28;20032;-76
2024/01/13 02:10:41;;;;;;;1.60;1.08;;;;;;;5.16;100.00;101441.28;5006844;28;20051;-78
2024/01/13 02:13:06;;;;;;;0.32;0.32;;;;;;;5.25;100.00;101439.47;4992526;28;20041;-76
2024/01/13 02:15:32;;;;;;;0.60;0.55;;;;;;;5.29;100.00;101435.13;4999245;28;20033;-75
2024/01/13 02:17:57;;;;;;;0.88;0.82;;;;;;;5.13;100.00;101433.09;5003402;28;20723;-75
2024/01/13 02:20:23;;;;;;;0.47;0.47;;;;;;;5.17;100.00;101428.72;5019358;28;20029;-76
2024/01/13 02:22:48;;;;;;;6.80;0.93;;;;;;;5.20;100.00;101420.13;5002506;28;20032;-76
2024/01/13 02:25:15;;;;;;;0.38;0.38;;;;;;;5.09;100.00;101408.84;4991087;28;20041;-76
2024/01/13 02:27:41;;;;;;;0.30;0.30;;;;;;;5.13;100.00;101406.41;4989579;28;20458;-76
2024/01/13 02:30:06;;;;;;;1.75;0.90;;;;;;;5.18;100.00;101406.28;4991683;28;20048;-77
2024/01/13 02:32:32;;;;;;;0.90;0.52;;;;;;;5.22;100.00;101397.38;5008573;28;20096;-75
2024/01/13 02:34:57;;;;;;;0.55;0.55;;;;;;;5.30;100.00;101391.31;4998590;28;20082;-77
2024/01/13 02:37:23;;;;;;;0.50;0.50;;;;;;;5.23;100.00;101398.16;4997897;28;20033;-76
2024/01/13 02:39:49;;;;;;;2.42;0.70;;;;;;;5.17;100.00;101384.13;5002711;28;20491;-77
2024/01/13 02:42:14;;;;;;;0.90;0.75;;;;;;;5.24;100.00;101373.84;5004270;28;20103;-77
2024/01/13 02:44:40;;;;;;;0.65;0.65;;;;;;;5.23;100.00;101384.81;5003007;28;20029;-75
2024/01/13 02:47:05;;;;;;;2.13;0.45;;;;;;;5.27;100.00;101381.25;5004023;28;20053;-77
2024/01/13 02:49:30;;;;;;;1.17;0.93;;;;;;;5.20;100.00;101382.75;5001460;28;20038;-76
2024/01/13 02:51:56;;;;;;;1.05;0.77;;;;;;;5.29;100.00;101378.25;5001487;28;20041;-75
2024/01/13 02:54:22;;;;;;;0.82;0.77;;;;;;;5.36;100.00;101374.09;5003103;28;20042;-75
2024/01/13 02:56:48;;;;;;;1.08;0.85;;;;;;;5.30;100.00;101372.63;5003439;28;20320;-75
2024/01/13 02:59:13;;;;;;;0.88;0.88;;;;;;;5.26;100.00;101371.66;5004126;28;20029;-75
2024/01/13 03:01:39;;;;;;;0.68;0.68;;;;;;;5.23;100.00;101369.59;4997949;28;20045;-76
2024/01/13 03:04:06;;;;;;;3.08;0.85;;;;;;;5.34;100.00;101364.81;5001382;28;20021;-76
2024/01/13 03:06:32;;;;;;;0.40;0.40;;;;;;;5.28;100.00;101353.44;5004613;28;20041;-75
2024/01/13 03:08:58;;;;;;;1.42;0.98;;;;;;;5.28;100.00;101342.75;5002230;28;20033;-76
2024/01/13 03:11:24;;;;;;;0.43;0.43;;;;;;;5.21;100.00;101341.59;5000175;28;20045;-76
2024/01/13 03:13:49;;;;;;;0.55;0.55;;;;;;;5.21;100.00;101338.94;5003782;28;20036;-76
2024/01/13 03:16:15;;;;;;;1.50;0.82;;;;;;;5.32;100.00;101340.31;5003210;28;20092;-76
2024/01/13 03:18:40;;;;;;;0.70;0.70;;;;;;;5.28;100.00;101321.41;5004007;28;21135;-76
2024/01/13 03:21:07;;;;;;;0.73;0.73;;;;;;;5.22;100.00;101317.28;5000226;28;20457;-75
2024/01/13 03:23:32;;;;;;;0.47;0.47;;;;;;;5.21;100.00;101309.56;5005621;28;20067;-77
2024/01/13 03:25:58;;;;;;;1.75;1.25;;;;;;;5.19;100.00;101325.09;5005243;28;20041;-76
2024/01/13 03:28:24;;;;;;;0.73;0.73;;;;;;;5.18;100.00;101316.31;5004451;28;20029;-75
2024/01/13 03:30:50;;;;;;;0.57;0.57;;;;;;;5.21;100.00;101320.25;5005404;28;20119;-76
2024/01/13 03:33:17;;;;;;;0.77;0.73;;;;;;;5.14;100.00;101307.34;5004796;28;20041;-76
2024/01/13 03:35:43;;;;;;;0.63;0.57;;;;;;;5.27;100.00;101303.03;5005141;28;20067;-77
2024/01/13 03:38:08;;;;;;;1.38;1.08;;;;;;;5.23;100.00;101310.84;5004577;28;20045;-76
2024/01/13 03:40:33;;;;;;;0.73;0.73;;;;;;;5.20;100.00;101302.66;5004998;28;20032;-75
2024/01/13 03:42:59;;;;;;;0.77;0.77;;;;;;;5.25;100.00;101315.88;5001891;28;20041;-75
2024/01/13 03:45:25;;;;;;;0.20;0.20;;;;;;;5.36;100.00;101307.34;5002403;28;20029;-76
2024/01/13 03:47:50;;;;;;;1.58;0.93;;;;;;;5.41;100.00;101299.22;5005690;28;20989;-75
2024/01/13 03:50:16;;;;;;;0.50;0.50;;;;;;;5.43;100.00;101297.03;5003413;28;20042;-76
2024/01/13 03:52:42;;;;;;;1.02;1.00;;;;;;;5.45;100.00;101294.84;4988360;28;20548;-75
2024/01/13 03:55:08;;;;;;;0.50;0.50;;;;;;;5.48;100.00;101293.44;5003853;28;20029;-76
2024/01/13 03:57:33;;;;;;;0.55;0.55;;;;;;;5.50;100.00;101297.38;4985641;28;20051;-76
2024/01/13 03:59:58;;;;;;;0.65;0.63;;;;;;;5.47;100.00;101295.34;5003105;28;20053;-75
2024/01/13 04:02:25;;;;;;;0.40;0.40;;;;;;;5.37;100.00;101298.25;5001383;28;20525;-75
2024/01/13 04:04:51;;;;;;;0.70;0.70;;;;;;;5.36;100.00;101298.56;5006735;28;20067;-77
2024/01/13 04:07:16;;;;;;;1.25;1.13;;;;;;;5.37;100.00;101298.25;5001810;28;22105;-75
2024/01/13 04:09:42;;;;;;;0.45;0.43;;;;;;;5.37;100.00;101294.78;5005791;28;20044;-76
2024/01/13 04:12:07;;;;;;;0.60;0.60;;;;;;;5.24;100.00;101288.41;5004598;28;20049;-76
2024/01/13 04:14:33;;;;;;;1.40;0.68;;;;;;;5.21;100.00;101289.00;5004290;28;20041;-75
2024/01/13 04:16:59;;;;;;;0.60;0.60;;;;;;;4.95;100.00;101293.38;4988790;28;20044;-76
2024/01/13 04:19:25;;;;;;;1.25;0.63;;;;;;;4.99;100.00;101280.19;5002231;28;20036;-75
2024/01/13 04:21:50;;;;;;;0.55;0.55;;;;;;;5.18;100.00;101275.47;5005693;28;21304;-75
2024/01/13 04:24:15;;;;;;;0.35;0.35;;;;;;;5.18;100.00;101273.63;5002852;28;20033;-75
2024/01/13 04:26:41;;;;;;;0.65;0.65;;;;;;;5.40;100.00;101270.94;5005549;28;20041;-75
2024/01/13 04:29:07;;;;;;;0.75;0.75;;;;;;;5.28;100.00;101265.34;5003283;28;20037;-75
2024/01/13 04:31:32;;;;;;;0.55;0.55;;;;;;;5.18;100.00;101270.94;5005620;28;20041;-76
2024/01/13 04:33:58;;;;;;;0.30;0.30;;;;;;;5.13;100.00;101263.03;5003375;28;20511;-76
2024/01/13 04:36:23;;;;;;;0.98;0.88;;;;;;;5.22;100.00;101263.91;5003347;28;20056;-76
2024/01/13 04:38:50;;;;;;;0.40;0.40;;;;;;;5.12;100.00;101258.00;5005363;28;20479;-77
2024/01/13 04:41:15;;;;;;;1.60;1.48;;;;;;;5.09;100.00;101262.06;4987062;28;20041;-75
2024/01/13 04:43:42;;;;;;;1.40;1.30;;;;;;;5.08;100.00;101254.38;5018390;28;21122;-78
2024/01/13 04:46:08;;;;;;;0.45;0.45;;;;;;;5.19;100.00;101245.81;5004810;28;20576;-75
2024/01/13 04:48:34;;;;;;;0.80;0.80;;;;;;;5.09;100.00;101253.28;5004439;28;20033;-75
2024/01/13 04:50:59;;;;;;;1.17;0.93;;;;;;;5.17;100.00;101245.31;5002624;28;20116;-75
2024/01/13 04:53:25;;;;;;;0.73;0.70;;;;;;;5.12;100.00;101248.13;5004766;28;20044;-75
2024/01/13 04:55:51;;;;;;;0.40;0.40;;;;;;;5.15;100.00;101244.84;5005467;28;21836;-76
2024/01/13 04:58:16;;;;;;;0.57;0.57;;;;;;;5.00;100.00;101245.22;5005755;28;20405;-76
2024/01/13 05:00:42;;;;;;;1.35;1.25;;;;;;;5.09;100.00;101251.38;5019039;28;20025;-75
2024/01/13 05:03:08;;;;;;;2.58;1.17;;;;;;;5.01;100.00;101236.13;5003999;28;20045;-75
2024/01/13 05:05:34;;;;;;;1.08;0.93;;;;;;;5.10;100.00;101241.50;4999960;28;20053;-75
2024/01/13 05:08:00;;;;;;;2.20;1.10;;;;;;;5.05;100.00;101234.41;5001516;28;20045;-76
2024/01/13 05:10:26;;;;;;;0.50;0.50;;;;;;;5.08;100.00;101225.81;5003799;28;20041;-76
2024/01/13 05:12:51;;;;;;;0.65;0.65;;;;;;;5.18;100.00;101216.75;5004686;28;20041;-77
2024/01/13 05:15:17;;;;;;;0.40;0.40;;;;;;;5.09;100.00;101216.69;5003719;28;20040;-76
2024/01/13 05:17:42;;;;;;;0.70;0.70;;;;;;;5.14;100.00;101213.91;5002331;28;21845;-75
2024/01/13 05:20:08;;;;;;;0.80;0.80;;;;;;;5.37;100.00;101212.81;5001860;28;20057;-75
2024/01/13 05:22:34;;;;;;;0.80;0.80;;;;;;;5.36;100.00;101203.19;5004658;28;20124;-77
2024/01/13 05:25:00;;;;;;;0.80;0.70;;;;;;;5.45;100.00;101197.91;5001438;28;20033;-76
2024/01/13 05:27:26;;;;;;;0.85;0.80;;;;;;;5.44;100.00;101197.13;5000942;28;20804;-76
2024/01/13 05:29:52;;;;;;;1.13;0.75;;;;;;;5.44;100.00;101189.09;5002245;28;20052;-76
2024/01/13 05:32:17;;;;;;;0.80;0.80;;;;;;;5.30;100.00;101184.97;5001852;28;20849;-77
2024/01/13 05:34:43;;;;;;;0.43;0.43;;;;;;;5.33;100.00;101184.34;4999797;28;20060;-78
2024/01/13 05:37:09;;;;;;;1.17;0.93;;;;;;;5.40;100.00;101188.16;5007559;28;20069;-76
2024/01/13 05:39:34;;;;;;;0.60;0.60;;;;;;;5.26;100.00;101182.13;5006772;28;20038;-76
2024/01/13 05:41:59;;;;;;;0.73;0.55;;;;;;;5.22;100.00;101173.16;5003985;28;20132;-78
2024/01/13 05:44:25;;;;;;;0.80;0.80;;;;;;;4.86;100.00;101164.41;5004367;28;20056;-75
2024/01/13 05:46:51;;;;;;;0.73;0.73;;;;;;;5.06;100.00;101158.59;5005257;28;20045;-75
2024/01/13 05:49:17;;;;;;;0.30;0.30;;;;;;;5.19;100.00;101156.94;5006077;28;20033;-76
2024/01/13 05:51:43;;;;;;;0.70;0.70;;;;;;;5.29;100.00;101154.81;5004079;28;20565;-75
2024/01/13 05:54:09;;;;;;;0.43;0.43;;;;;;;5.14;100.00;101155.19;5001056;28;20580;-76
2024/01/13 05:56:35;;;;;;;0.20;0.20;;;;;;;5.02;100.00;101157.63;5020772;28;20410;-75
2024/01/13 05:59:01;;;;;;;0.80;0.80;;;;;;;5.08;100.00;101164.41;5004695;28;20076;-76
2024/01/13 06:01:26;;;;;;;0.43;0.43;;;;;;;5.30;100.00;101140.34;5001127;28;20090;-76
2024/01/13 06:03:52;;;;;;;0.55;0.55;;;;;;;5.19;100.00;101141.72;5002501;28;20044;-76
2024/01/13 06:06:17;;;;;;;1.63;0.85;;;;;;;5.35;100.00;101134.09;4982648;28;20037;-76
2024/01/13 06:08:43;;;;;;;0.30;0.30;;;;;;;5.38;100.00;101130.81;5003181;28;20038;-77
2024/01/13 06:11:09;;;;;;;0.30;0.30;;;;;;;5.53;100.00;101124.28;5002684;28;20033;-76
2024/01/13 06:13:35;;;;;;;0.40;0.40;;;;;;;5.20;100.00;101123.81;5003458;28;20418;-77
2024/01/13 06:16:00;;;;;;;0.43;0.43;;;;;;;5.42;100.00;101119.19;4996272;28;20037;-76
2024/01/13 06:18:29;;;;;;;0.17;0.17;;;;;;;5.35;100.00;101118.06;4973954;28;20494;-77
2024/01/13 06:20:54;;;;;;;0.47;0.47;;;;;;;5.18;100.00;101121.47;4999428;28;20048;-76
2024/01/13 06:23:21;;;;;;;0.20;0.20;;;;;;;5.14;100.00;101109.81;4993154;28;20691;-77
2024/01/13 06:25:47;;;;;;;0.88;0.35;;;;;;;5.15;100.00;101108.72;4989120;28;20051;-75
2024/01/13 06:28:12;;;;;;;0.47;0.28;;;;;;;5.23;100.00;101115.19;4998067;28;20037;-76
2024/01/13 06:30:38;;;;;;;1.05;0.65;;;;;;;5.32;100.00;101108.03;5004097;28;20115;-75
2024/01/13 06:33:03;;;;;;;0.55;0.55;;;;;;;5.14;100.00;101101.81;5003997;28;20061;-77
2024/01/13 06:35:29;;;;;;;0.35;0.28;;;;;;;5.15;100.00;101103.38;5004477;28;20041;-76
2024/01/13 06:37:54;;;;;;;0.60;0.55;;;;;;;5.26;100.00;101095.91;5002903;28;20318;-75
2024/01/13 06:40:20;;;;;;;0.55;0.45;;;;;;;5.22;100.00;101092.28;5003899;28;20215;-76
2024/01/13 06:42:46;;;;;;;0.20;0.20;;;;;;;5.33;100.00;101081.00;5002008;28;20037;-75
2024/01/13 06:45:11;;;;;;;0.45;0.45;;;;;;;5.19;100.00;101079.53;4993655;28;20041;-77
2024/01/13 06:47:37;;;;;;;0.52;0.52;;;;;;;5.26;100.00;101063.88;5004875;28;21540;-76
2024/01/13 06:50:03;;;;;;;1.10;0.98;;;;;;;5.29;100.00;101063.25;5002086;28;20446;-75
2024/01/13 06:52:28;;;;;;;0.45;0.45;;;;;;;5.13;100.00;101044.19;5001657;28;20160;-75
2024/01/13 06:54:54;;;;;;;0.50;0.50;;;;;;;5.19;100.00;101040.28;5003204;28;20404;-76
2024/01/13 06:57:20;;;;;;;0.75;0.50;;;;;;;4.91;100.00;101027.47;5006416;28;20124;-75
2024/01/13 06:59:46;;;;;;;3.42;0.93;;;;;;;5.18;100.00;101011.22;5001936;28;20919;-75
2024/01/13 07:02:12;;;;;;;0.40;0.40;;;;;;;5.19;100.00;101016.25;4993842;28;20049;-76
2024/01/13 07:04:38;;;;;;;1.65;0.88;;;;;;;5.25;100.00;101014.22;5014935;28;20065;-77
2024/01/13 07:07:08;;;;;;;0.32;0.32;;;;;;;4.99;100.00;101022.16;5001862;28;20128;-76
2024/01/13 07:09:33;;;;;;;0.65;0.60;;;;;;;5.02;100.00;101008.19;5006974;28;20617;-76
2024/01/13 07:11:59;;;;;;;0.20;0.20;;;;;;;5.21;100.00;101018.59;5005574;28;20045;-75
2024/01/13 07:14:25;;;;;;;0.35;0.35;;;;;;;5.22;100.00;101018.31;5008897;28;20040;-76
2024/01/13 07:16:50;;;;;;;0.40;0.40;;;;;;;5.15;100.00;101019.88;5008606;28;20049;-76
2024/01/13 07:19:15;;;;;;;0.20;0.20;;;;;;;5.13;100.00;101025.50;5002819;28;20681;-76
2024/01/13 07:21:42;;;;;;;0.25;0.25;;;;;;;5.10;100.00;101033.34;5006548;28;20075;-76
2024/01/13 07:24:09;;;;;;;1.70;1.08;;;;;;;4.94;100.00;101027.63;5006151;28;21170;-77
2024/01/13 07:26:39;;;;;;;0.50;0.50;;;;;;;5.15;100.00;101028.66;4997829;28;20046;-77
2024/01/13 07:29:04;;;;;;;0.70;0.70;;;;;;;5.17;100.00;101026.44;5001718;28;20033;-76
2024/01/13 07:31:30;;;;;;;0.68;0.68;;;;;;;5.36;100.00;101023.53;5004769;28;20026;-75
2024/01/13 07:33:55;;;;;;;0.60;0.60;;;;;;;5.22;100.00;101025.53;5001244;28;20116;-76
2024/01/13 07:36:21;;;;;;;0.40;0.40;;;;;;;5.04;100.00;101015.88;5004357;28;20113;-76
2024/01/13 07:38:46;;;;;;;0.50;0.50;;;;;;;5.04;100.00;101016.69;4988146;28;21261;-76
2024/01/13 07:41:12;;;;;;;0.30;0.30;;;;;;;4.89;100.00;101003.75;5008888;28;20025;-76
2024/01/13 07:43:37;;;;;;;1.48;0.75;;;;;;;5.19;100.00;100986.91;5005668;28;20475;-77
2024/01/13 07:46:03;;;;;;;0.40;0.40;;;;;;;5.19;100.00;100994.91;5006483;28;20672;-75
2024/01/13 07:48:29;;;;;;;0.98;0.93;;;;;;;5.20;100.00;100998.38;5006339;28;20044;-75
2024/01/13 07:50:54;;;;;;;0.43;0.43;;;;;;;5.09;100.00;101000.53;5007906;28;20034;-75
2024/01/13 07:53:20;;;;;;;0.50;0.50;;;;;;;5.24;100.00;100994.78;5006982;28;20091;-76
2024/01/13 07:55:45;;;;;;;0.85;0.60;;;;;;;5.35;100.00;100988.03;5008217;28;20033;-75
2024/01/13 07:58:11;;;;;;;0.93;0.70;;;;;;;5.37;100.00;100996.53;5009546;28;20267;-76
2024/01/13 08:00:37;;;;;;;0.70;0.70;;;;;;;5.42;100.00;100977.69;5007044;28;20041;-77
2024/01/13 08:03:04;;;;;;;0.47;0.40;;;;;;;5.50;100.00;100982.25;5007015;28;20044;-75
2024/01/13 08:05:31;;;;;;;0.73;0.50;;;;;;;5.43;100.00;100975.81;5006647;28;20041;-75
2024/01/13 08:07:57;;;;;;;0.47;0.47;;;;;;;5.34;100.00;100975.00;5005836;28;20124;-75
2024/01/13 08:10:23;;;;;;;0.55;0.55;;;;;;;5.26;100.00;100971.22;5000200;28;20056;-75
2024/01/13 08:12:48;;;;;;;0.40;0.40;;;;;;;5.34;100.00;100949.06;5002580;28;20045;-76
2024/01/13 08:15:14;;;;;;;0.65;0.55;;;;;;;5.38;100.00;100955.38;5006312;28;20047;-77
2024/01/13 08:17:40;;;;;;;0.50;0.50;;;;;;;5.29;100.00;100948.44;5001219;28;20043;-77
2024/01/13 08:20:06;;;;;;;0.20;0.20;;;;;;;5.43;100.00;100951.78;5004906;28;20044;-77
2024/01/13 08:22:32;;;;;;;0.20;0.20;;;;;;;5.35;100.00;100936.53;5003377;28;20119;-77
2024/01/13 08:24:57;;;;;;;0.73;0.57;;;;;;;5.29;100.00;100938.56;4999162;28;20128;-75
2024/01/13 08:27:24;;;;;;;0.25;0.25;;;;;;;5.46;100.00;100922.56;5003232;28;22058;-76
2024/01/13 08:29:50;;;;;;;0.38;0.38;;;;;;;5.44;100.00;100940.78;5000315;28;20123;-77
2024/01/13 08:32:15;;;;;;;0.90;0.47;;;;;;;5.25;100.00;100931.47;5004113;28;20045;-76
2024/01/13 08:34:40;;;;;;;0.38;0.38;;;;;;;5.34;100.00;100927.72;5000355;28;20086;-76
2024/01/13 08:37:06;;;;;;;0.45;0.45;;;;;;;5.05;100.00;100921.41;5003275;28;20514;-76
2024/01/13 08:39:32;;;;;;;0.47;0.47;;;;;;;5.28;100.00;100918.28;5004925;28;20033;-78
2024/01/13 08:41:57;;;;;;;1.50;0.55;;;;;;;5.15;100.00;100916.53;5000474;28;21090;-77
2024/01/13 08:44:26;;;;;;;0.55;0.32;;;;;;;5.25;100.00;100900.25;5002472;28;21983;-81
2024/01/13 08:46:52;;;;;;;0.70;0.70;;;;;;;5.11;100.00;100899.59;5002514;28;20513;-77
2024/01/13 08:49:17;;;;;;;0.20;0.20;;;;;;;5.31;100.00;100909.66;5001300;28;20041;-76
2024/01/13 08:51:46;;;;;;;0.57;0.57;;;;;;;5.23;100.00;100907.78;5002975;28;20040;-76
2024/01/13 08:54:11;;;;;;;0.20;0.20;;;;;;;5.35;100.00;100899.94;5000995;28;20033;-75
2024/01/13 08:56:37;;;;;;;0.28;0.20;;;;;;;5.37;100.00;100894.28;5002746;28;20044;-78
2024/01/13 08:59:02;;;;;;;0.40;0.40;;;;;;;5.52;100.00;100904.47;5000980;28;20044;-78
2024/01/13 09:01:28;;;;;;;1.33;0.25;;;;;;;5.53;100.00;100899.94;5017326;28;20116;-76
2024/01/13 09:03:53;;;;;;;0.55;0.43;;;;;;;5.61;100.00;100907.97;4999287;28;20532;-76
2024/01/13 09:06:19;;;;;;;0.20;0.20;;;;;;;5.57;100.00;100911.56;5002256;28;20047;-76
2024/01/13 09:08:44;;;;;;;1.35;0.47;;;;;;;5.52;100.00;100898.38;5003555;28;20104;-77
2024/01/13 09:11:10;;;;;;;0.43;0.43;;;;;;;5.49;100.00;100905.13;5005865;28;20029;-75
2024/01/13 09:13:36;;;;;;;0.45;0.45;;;;;;;5.40;100.00;100901.69;5017072;28;20021;-79
2024/01/13 09:16:02;;;;;;;0.20;0.20;;;;;;;5.46;100.00;100900.41;5007826;28;20037;-77
2024/01/13 09:18:27;;;;;;;1.15;0.70;;;;;;;5.30;100.00;100908.06;5001562;28;20061;-76
2024/01/13 09:20:53;;;;;;;0.40;0.40;;;;;;;5.22;100.00;100900.88;5001635;28;20041;-75
2024/01/13 09:23:18;;;;;;;0.50;0.25;;;;;;;5.34;100.00;100901.03;5001191;28;20037;-75
2024/01/13 09:25:43;;;;;;;0.43;0.43;;;;;;;5.38;100.00;100901.19;4999886;28;21503;-75
2024/01/13 09:28:09;;;;;;;0.60;0.60;;;;;;;5.57;100.00;100900.88;4991118;28;20037;-75
2024/01/13 09:30:36;;;;;;;0.28;0.28;;;;;;;5.76;100.00;100891.44;4989467;28;20029;-75
2024/01/13 09:33:01;;;;;;;0.40;0.40;;;;;;;5.87;100.00;100889.25;4989386;28;20611;-75
2024/01/13 09:35:31;;;;;;;0.40;0.40;;;;;;;5.50;100.00;100872.75;4992391;28;20044;-77
2024/01/13 09:37:57;;;;;;;0.52;0.52;;;;;;;5.30;100.00;100881.38;4973474;28;20129;-75
2024/01/13 09:40:23;;;;;;;0.30;0.30;;;;;;;5.49;100.00;100868.53;4988690;28;20072;-76
2024/01/13 09:42:50;;;;;;;0.55;0.35;;;;;;;5.43;100.00;100875.13;4991352;28;20029;-75
2024/01/13 09:45:17;;;;;;;0.30;0.30;;;;;;;5.37;100.00;100871.03;4990090;28;20115;-75
2024/01/13 09:47:44;;;;;;;0.93;0.93;;;;;;;5.34;100.00;100868.22;4991643;28;20068;-75
2024/01/13 09:50:10;;;;;;;0.38;0.32;;;;;;;5.55;100.00;100874.50;4974262;28;20037;-77
2024/01/13 09:52:38;;;;;;;0.40;0.40;;;;;;;5.81;100.00;100853.06;4990653;28;20076;-75
2024/01/13 09:55:07;;;;;;;0.63;0.40;;;;;;;5.67;100.00;100865.84;4988504;28;20045;-76
2024/01/13 09:57:33;;;;;;;0.28;0.25;;;;;;;5.63;100.00;100864.91;4990018;28;20696;-77
2024/01/13 09:59:59;;;;;;;0.50;0.50;;;;;;;5.76;100.00;100858.59;4991438;28;20041;-75
2024/01/13 10:02:25;;;;;;;0.30;0.30;;;;;;;5.55;100.00;100863.81;4987416;28;20164;-75
2024/01/13 10:04:50;;;;;;;0.50;0.45;;;;;;;5.70;100.00;100851.84;4987053;28;20037;-76
2024/01/13 10:07:16;;;;;;;0.60;0.25;;;;;;;5.44;100.00;100852.66;4988011;28;20037;-75
2024/01/13 10:09:42;;;;;;;0.35;0.35;;;;;;;5.49;100.00;100860.53;4991744;28;20512;-77
2024/01/13 10:12:08;;;;;;;0.65;0.65;;;;;;;5.38;100.00;100845.13;4995088;28;20029;-76
2024/01/13 10:14:38;;;;;;;0.40;0.40;;;;;;;5.64;100.00;100853.91;4988920;28;20048;-76
2024/01/13 10:17:05;;;;;;;0.30;0.30;;;;;;;5.64;100.00;100837.06;5007734;28;20033;-76
2024/01/13 10:19:36;;;;;;;0.30;0.30;;;;;;;5.33;100.00;100831.94;4972197;28;20475;-76
2024/01/13 10:22:02;;;;;;;0.40;0.40;;;;;;;5.69;100.00;100828.91;4991653;28;20100;-75
2024/01/13 10:24:29;;;;;;;0.50;0.50;;;;;;;5.64;100.00;100815.72;4993020;28;20507;-75
2024/01/13 10:26:55;;;;;;;0.30;0.30;;;;;;;5.78;100.00;100819.78;4990798;28;20511;-76
2024/01/13 10:29:21;;;;;;;0.50;0.50;;;;;;;5.77;100.00;100804.84;4990249;28;20042;-75
2024/01/13 10:31:50;;;;;;;0.35;0.35;;;;;;;5.64;100.00;100805.03;4992754;28;20037;-76
2024/01/13 10:34:20;;;;;;;0.60;0.60;;;;;;;5.70;100.00;100798.41;4993684;28;20052;-76
2024/01/13 10:36:46;;;;;;;1.05;0.93;;;;;;;5.74;100.00;100794.78;4992656;28;20041;-77
2024/01/13 10:39:12;;;;;;;0.35;0.35;;;;;;;5.85;100.00;100787.25;4998304;28;20033;-77
2024/01/13 10:41:43;;;;;;;0.30;0.30;;;;;;;5.90;100.00;100787.88;4996301;28;20041;-76
2024/01/13 10:44:09;;;;;;;0.35;0.35;;;;;;;6.05;100.00;100778.53;4997759;28;20041;-75
2024/01/13 10:46:38;;;;;;;0.55;0.55;;;;;;;5.69;100.00;100770.16;5001911;28;20483;-78
2024/01/13 10:49:26;;;;;;;0.85;0.70;;;;;;;5.57;100.00;100754.78;5005025;28;20060;-75
2024/01/13 10:51:56;;;;;;;0.52;0.50;;;;;;;5.56;100.00;100755.06;5001095;28;20033;-76
2024/01/13 10:54:25;;;;;;;0.38;0.38;;;;;;;5.63;100.00;100758.06;5002669;28;21549;-76
2024/01/13 10:56:56;;;;;;;0.45;0.45;;;;;;;5.84;100.00;100754.41;5001503;28;20041;-76
2024/01/13 10:59:30;;;;;;;0.50;0.50;;;;;;;5.79;100.00;100751.09;5014628;28;20113;-75
2024/01/13 11:01:58;;;;;;;0.32;0.32;;;;;;;5.86;100.00;100746.06;4996868;28;20387;-75
2024/01/13 11:04:24;;;;;;;0.38;0.38;;;;;;;5.67;100.00;100726.94;4998208;28;20037;-75
2024/01/13 11:06:50;;;;;;;0.32;0.32;;;;;;;5.83;100.00;100727.97;4998777;28;20091;-75
2024/01/13 11:09:17;;;;;;;0.98;0.40;;;;;;;5.92;100.00;100726.09;4995259;28;20041;-75
2024/01/13 11:11:52;;;;;;;1.25;0.50;;;;;;;5.86;100.00;100724.69;4997092;28;20040;-76
2024/01/13 11:14:25;;;;;;;0.47;0.47;;;;;;;5.88;100.00;100717.94;4992803;28;20034;-75
2024/01/13 11:16:52;;;;;;;0.73;0.47;;;;;;;5.83;100.00;100703.91;4986282;28;20041;-75
2024/01/13 11:19:18;;;;;;;0.30;0.20;;;;;;;6.06;100.00;100700.69;5004236;28;20433;-75